sensor_id;sensor_type;location;lat;lon;timestamp;P1;durP1;ratioP1;P2;durP2;ratioP2
23260;SDS011;11799;47.740;-3.390;2022-08-20T00:01:31;0.20;;;0.20;;
23260;SDS011;11799;47.740;-3.390;2022-08-20T00:03:57;0.20;;;0.20;;
23260;SDS011;11799;47.740;-3.390;2022-08-20T00:06:23;0.20;;;0.20;;
23260;SDS011;11799;47.740;-3.390;2022-08-20T00:08:49;0.20;;;0.20;;
23260;SDS011;11799;47.740;-3.390;2022-08-20T00:11:16;0.20;;;0.20;;
23260;SDS011;11799;47.740;-3.390;2022-08-20T00:13:48;0.28;;;0.28;;
23260;SDS011;11799;47.740;-3.390;2022-08-20T00:16:16;0.20;;;0.20;;
23260;SDS011;11799;47.740;-3.390;2022-08-20T00:18:44;0.20;;;0.20;;
23260;SDS011;11799;47.740;-3.390;2022-08-20T00:21:11;0.20;;;0.20;;
23260;SDS011;11799;47.740;-3.390;2022-08-20T00:23:39;0.20;;;0.20;;
23260;SDS011;11799;47.740;-3.390;2022-08-20T00:26:06;0.20;;;0.20;;
23260;SDS011;11799;47.740;-3.390;2022-08-20T00:28:34;0.20;;;0.20;;
23260;SDS011;11799;47.740;-3.390;2022-08-20T00:31:01;0.20;;;0.20;;
23260;SDS011;11799;47.740;-3.390;2022-08-20T00:33:29;0.20;;;0.20;;
23260;SDS011;11799;47.740;-3.390;2022-08-20T00:35:55;0.20;;;0.20;;
23260;SDS011;11799;47.740;-3.390;2022-08-20T00:38:22;0.22;;;0.22;;
23260;SDS011;11799;47.740;-3.390;2022-08-20T00:40:54;0.22;;;0.22;;
23260;SDS011;11799;47.740;-3.390;2022-08-20T00:45:56;0.30;;;0.30;;
23260;SDS011;11799;47.740;-3.390;2022-08-20T00:48:24;0.30;;;0.30;;
23260;SDS011;11799;47.740;-3.390;2022-08-20T00:51:00;0.20;;;0.20;;
23260;SDS011;11799;47.740;-3.390;2022-08-20T00:53:30;0.20;;;0.20;;
23260;SDS011;11799;47.740;-3.390;2022-08-20T00:55:56;0.20;;;0.20;;
23260;SDS011;11799;47.740;-3.390;2022-08-20T00:58:22;0.20;;;0.20;;
23260;SDS011;11799;47.740;-3.390;2022-08-20T01:00:48;0.20;;;0.20;;
23260;SDS011;11799;47.740;-3.390;2022-08-20T01:03:15;0.20;;;0.20;;
23260;SDS011;11799;47.740;-3.390;2022-08-20T01:05:46;0.20;;;0.20;;
23260;SDS011;11799;47.740;-3.390;2022-08-20T01:08:15;0.20;;;0.20;;
23260;SDS011;11799;47.740;-3.390;2022-08-20T01:10:43;0.20;;;0.20;;
23260;SDS011;11799;47.740;-3.390;2022-08-20T01:13:14;0.20;;;0.20;;
23260;SDS011;11799;47.740;-3.390;2022-08-20T01:15:47;0.20;;;0.20;;
23260;SDS011;11799;47.740;-3.390;2022-08-20T01:18:16;0.20;;;0.20;;
23260;SDS011;11799;47.740;-3.390;2022-08-20T01:20:47;0.20;;;0.20;;
23260;SDS011;11799;47.740;-3.390;2022-08-20T01:31:22;0.20;;;0.20;;
23260;SDS011;11799;47.740;-3.390;2022-08-20T01:33:49;0.20;;;0.20;;
23260;SDS011;11799;47.740;-3.390;2022-08-20T01:36:17;0.20;;;0.20;;
23260;SDS011;11799;47.740;-3.390;2022-08-20T01:38:47;0.20;;;0.20;;
23260;SDS011;11799;47.740;-3.390;2022-08-20T01:44:18;0.20;;;0.20;;
23260;SDS011;11799;47.740;-3.390;2022-08-20T01:46:46;0.30;;;0.30;;
23260;SDS011;11799;47.740;-3.390;2022-08-20T01:51:50;0.30;;;0.30;;
23260;SDS011;11799;47.740;-3.390;2022-08-20T01:54:17;0.30;;;0.30;;
23260;SDS011;11799;47.740;-3.390;2022-08-20T01:56:51;0.20;;;0.20;;
23260;SDS011;11799;47.740;-3.390;2022-08-20T01:59:34;0.20;;;0.20;;
23260;SDS011;11799;47.740;-3.390;2022-08-20T02:01:59;0.20;;;0.20;;
23260;SDS011;11799;47.740;-3.390;2022-08-20T02:04:26;0.20;;;0.20;;
23260;SDS011;11799;47.740;-3.390;2022-08-20T02:06:57;0.20;;;0.20;;
23260;SDS011;11799;47.740;-3.390;2022-08-20T02:09:27;0.20;;;0.20;;
23260;SDS011;11799;47.740;-3.390;2022-08-20T02:11:54;0.20;;;0.20;;
23260;SDS011;11799;47.740;-3.390;2022-08-20T02:14:21;0.20;;;0.20;;
23260;SDS011;11799;47.740;-3.390;2022-08-20T02:16:48;0.20;;;0.20;;
23260;SDS011;11799;47.740;-3.390;2022-08-20T02:19:20;0.20;;;0.20;;
23260;SDS011;11799;47.740;-3.390;2022-08-20T02:21:53;0.20;;;0.20;;
23260;SDS011;11799;47.740;-3.390;2022-08-20T02:24:23;0.28;;;0.28;;
23260;SDS011;11799;47.740;-3.390;2022-08-20T02:26:49;0.20;;;0.20;;
23260;SDS011;11799;47.740;-3.390;2022-08-20T02:29:15;0.20;;;0.20;;
23260;SDS011;11799;47.740;-3.390;2022-08-20T02:31:41;0.28;;;0.28;;
23260;SDS011;11799;47.740;-3.390;2022-08-20T02:34:08;0.20;;;0.20;;
23260;SDS011;11799;47.740;-3.390;2022-08-20T02:36:35;0.20;;;0.20;;
23260;SDS011;11799;47.740;-3.390;2022-08-20T02:39:03;0.20;;;0.20;;
23260;SDS011;11799;47.740;-3.390;2022-08-20T02:41:33;0.30;;;0.30;;
23260;SDS011;11799;47.740;-3.390;2022-08-20T02:43:59;0.20;;;0.20;;
23260;SDS011;11799;47.740;-3.390;2022-08-20T02:46:25;0.20;;;0.20;;
23260;SDS011;11799;47.740;-3.390;2022-08-20T02:48:52;0.20;;;0.20;;
23260;SDS011;11799;47.740;-3.390;2022-08-20T02:51:18;0.20;;;0.20;;
23260;SDS011;11799;47.740;-3.390;2022-08-20T02:53:44;0.20;;;0.20;;
23260;SDS011;11799;47.740;-3.390;2022-08-20T02:56:10;0.20;;;0.20;;
23260;SDS011;11799;47.740;-3.390;2022-08-20T02:58:36;0.30;;;0.30;;
23260;SDS011;11799;47.740;-3.390;2022-08-20T03:01:03;0.20;;;0.20;;
23260;SDS011;11799;47.740;-3.390;2022-08-20T03:03:31;0.20;;;0.20;;
23260;SDS011;11799;47.740;-3.390;2022-08-20T03:05:57;0.20;;;0.20;;
23260;SDS011;11799;47.740;-3.390;2022-08-20T03:08:23;0.30;;;0.30;;
23260;SDS011;11799;47.740;-3.390;2022-08-20T03:10:51;0.20;;;0.20;;
23260;SDS011;11799;47.740;-3.390;2022-08-20T03:13:17;0.20;;;0.20;;
23260;SDS011;11799;47.740;-3.390;2022-08-20T03:15:45;0.20;;;0.20;;
23260;SDS011;11799;47.740;-3.390;2022-08-20T03:18:13;0.20;;;0.20;;
23260;SDS011;11799;47.740;-3.390;2022-08-20T03:20:41;0.20;;;0.20;;
23260;SDS011;11799;47.740;-3.390;2022-08-20T03:23:07;0.20;;;0.20;;
23260;SDS011;11799;47.740;-3.390;2022-08-20T03:25:32;0.22;;;0.22;;
23260;SDS011;11799;47.740;-3.390;2022-08-20T03:27:58;0.20;;;0.20;;
23260;SDS011;11799;47.740;-3.390;2022-08-20T03:30:25;0.20;;;0.20;;
23260;SDS011;11799;47.740;-3.390;2022-08-20T03:32:52;0.20;;;0.20;;
23260;SDS011;11799;47.740;-3.390;2022-08-20T03:35:18;0.20;;;0.20;;
23260;SDS011;11799;47.740;-3.390;2022-08-20T03:37:45;0.20;;;0.20;;
23260;SDS011;11799;47.740;-3.390;2022-08-20T03:40:12;0.20;;;0.20;;
23260;SDS011;11799;47.740;-3.390;2022-08-20T03:42:41;0.30;;;0.30;;
23260;SDS011;11799;47.740;-3.390;2022-08-20T03:45:08;0.20;;;0.20;;
23260;SDS011;11799;47.740;-3.390;2022-08-20T03:47:37;0.20;;;0.20;;
23260;SDS011;11799;47.740;-3.390;2022-08-20T03:50:04;0.22;;;0.22;;
23260;SDS011;11799;47.740;-3.390;2022-08-20T03:52:32;0.25;;;0.25;;
23260;SDS011;11799;47.740;-3.390;2022-08-20T03:54:57;0.30;;;0.30;;
23260;SDS011;11799;47.740;-3.390;2022-08-20T03:57:23;0.47;;;0.47;;
23260;SDS011;11799;47.740;-3.390;2022-08-20T03:59:48;0.20;;;0.20;;
23260;SDS011;11799;47.740;-3.390;2022-08-20T04:02:16;0.20;;;0.20;;
23260;SDS011;11799;47.740;-3.390;2022-08-20T04:04:42;0.20;;;0.20;;
23260;SDS011;11799;47.740;-3.390;2022-08-20T04:07:12;0.30;;;0.30;;
23260;SDS011;11799;47.740;-3.390;2022-08-20T04:09:40;0.20;;;0.20;;
23260;SDS011;11799;47.740;-3.390;2022-08-20T04:12:08;0.30;;;0.30;;
23260;SDS011;11799;47.740;-3.390;2022-08-20T04:14:37;0.30;;;0.30;;
23260;SDS011;11799;47.740;-3.390;2022-08-20T04:17:08;0.20;;;0.20;;
23260;SDS011;11799;47.740;-3.390;2022-08-20T04:19:36;0.20;;;0.20;;
23260;SDS011;11799;47.740;-3.390;2022-08-20T04:22:03;0.30;;;0.30;;
23260;SDS011;11799;47.740;-3.390;2022-08-20T04:24:30;0.30;;;0.30;;
23260;SDS011;11799;47.740;-3.390;2022-08-20T04:26:56;0.25;;;0.25;;
23260;SDS011;11799;47.740;-3.390;2022-08-20T04:29:22;0.20;;;0.20;;
23260;SDS011;11799;47.740;-3.390;2022-08-20T04:31:48;0.20;;;0.20;;
23260;SDS011;11799;47.740;-3.390;2022-08-20T04:34:14;0.20;;;0.20;;
23260;SDS011;11799;47.740;-3.390;2022-08-20T04:36:43;0.20;;;0.20;;
23260;SDS011;11799;47.740;-3.390;2022-08-20T04:39:14;0.20;;;0.20;;
23260;SDS011;11799;47.740;-3.390;2022-08-20T04:41:40;0.30;;;0.30;;
23260;SDS011;11799;47.740;-3.390;2022-08-20T04:44:07;0.20;;;0.20;;
23260;SDS011;11799;47.740;-3.390;2022-08-20T04:46:33;0.20;;;0.20;;
23260;SDS011;11799;47.740;-3.390;2022-08-20T04:48:59;0.20;;;0.20;;
23260;SDS011;11799;47.740;-3.390;2022-08-20T04:51:27;0.20;;;0.20;;
23260;SDS011;11799;47.740;-3.390;2022-08-20T04:53:53;0.30;;;0.30;;
23260;SDS011;11799;47.740;-3.390;2022-08-20T04:56:24;0.20;;;0.20;;
23260;SDS011;11799;47.740;-3.390;2022-08-20T04:58:52;0.20;;;0.20;;
23260;SDS011;11799;47.740;-3.390;2022-08-20T05:01:19;0.20;;;0.20;;
23260;SDS011;11799;47.740;-3.390;2022-08-20T05:03:47;0.25;;;0.25;;
23260;SDS011;11799;47.740;-3.390;2022-08-20T05:06:12;0.20;;;0.20;;
23260;SDS011;11799;47.740;-3.390;2022-08-20T05:08:38;0.28;;;0.28;;
23260;SDS011;11799;47.740;-3.390;2022-08-20T05:11:04;0.30;;;0.30;;
23260;SDS011;11799;47.740;-3.390;2022-08-20T05:13:32;0.20;;;0.20;;
23260;SDS011;11799;47.740;-3.390;2022-08-20T05:15:58;0.20;;;0.20;;
23260;SDS011;11799;47.740;-3.390;2022-08-20T05:18:26;0.20;;;0.20;;
23260;SDS011;11799;47.740;-3.390;2022-08-20T05:20:55;0.20;;;0.20;;
23260;SDS011;11799;47.740;-3.390;2022-08-20T05:25:50;0.20;;;0.20;;
23260;SDS011;11799;47.740;-3.390;2022-08-20T05:28:20;0.20;;;0.20;;
23260;SDS011;11799;47.740;-3.390;2022-08-20T05:30:48;0.30;;;0.30;;
23260;SDS011;11799;47.740;-3.390;2022-08-20T05:33:17;0.30;;;0.30;;
23260;SDS011;11799;47.740;-3.390;2022-08-20T05:35:44;0.30;;;0.30;;
23260;SDS011;11799;47.740;-3.390;2022-08-20T05:38:12;0.20;;;0.20;;
23260;SDS011;11799;47.740;-3.390;2022-08-20T05:40:39;0.20;;;0.20;;
23260;SDS011;11799;47.740;-3.390;2022-08-20T05:43:06;0.20;;;0.20;;
23260;SDS011;11799;47.740;-3.390;2022-08-20T05:45:33;0.20;;;0.20;;
23260;SDS011;11799;47.740;-3.390;2022-08-20T05:48:05;0.20;;;0.20;;
23260;SDS011;11799;47.740;-3.390;2022-08-20T05:50:37;0.20;;;0.20;;
23260;SDS011;11799;47.740;-3.390;2022-08-20T05:53:04;0.20;;;0.20;;
23260;SDS011;11799;47.740;-3.390;2022-08-20T05:55:30;0.30;;;0.30;;
23260;SDS011;11799;47.740;-3.390;2022-08-20T05:57:59;0.20;;;0.20;;
23260;SDS011;11799;47.740;-3.390;2022-08-20T06:00:27;0.30;;;0.30;;
23260;SDS011;11799;47.740;-3.390;2022-08-20T06:02:54;0.20;;;0.20;;
23260;SDS011;11799;47.740;-3.390;2022-08-20T06:05:39;0.20;;;0.20;;
23260;SDS011;11799;47.740;-3.390;2022-08-20T06:08:06;0.20;;;0.20;;
23260;SDS011;11799;47.740;-3.390;2022-08-20T06:10:33;0.20;;;0.20;;
23260;SDS011;11799;47.740;-3.390;2022-08-20T06:13:00;0.20;;;0.20;;
23260;SDS011;11799;47.740;-3.390;2022-08-20T06:15:27;0.30;;;0.30;;
23260;SDS011;11799;47.740;-3.390;2022-08-20T06:17:53;0.30;;;0.30;;
23260;SDS011;11799;47.740;-3.390;2022-08-20T06:20:19;0.30;;;0.30;;
23260;SDS011;11799;47.740;-3.390;2022-08-20T06:22:44;0.40;;;0.40;;
23260;SDS011;11799;47.740;-3.390;2022-08-20T06:25:10;0.20;;;0.20;;
23260;SDS011;11799;47.740;-3.390;2022-08-20T06:27:39;0.20;;;0.20;;
23260;SDS011;11799;47.740;-3.390;2022-08-20T06:30:08;0.28;;;0.28;;
23260;SDS011;11799;47.740;-3.390;2022-08-20T06:32:36;0.25;;;0.25;;
23260;SDS011;11799;47.740;-3.390;2022-08-20T06:35:04;0.30;;;0.30;;
23260;SDS011;11799;47.740;-3.390;2022-08-20T06:37:32;0.20;;;0.20;;
23260;SDS011;11799;47.740;-3.390;2022-08-20T06:40:02;0.30;;;0.30;;
23260;SDS011;11799;47.740;-3.390;2022-08-20T06:42:31;0.28;;;0.28;;
23260;SDS011;11799;47.740;-3.390;2022-08-20T06:44:56;0.20;;;0.20;;
23260;SDS011;11799;47.740;-3.390;2022-08-20T06:47:23;0.32;;;0.32;;
23260;SDS011;11799;47.740;-3.390;2022-08-20T06:49:49;0.30;;;0.30;;
23260;SDS011;11799;47.740;-3.390;2022-08-20T06:52:14;0.20;;;0.20;;
23260;SDS011;11799;47.740;-3.390;2022-08-20T06:54:41;0.28;;;0.28;;
23260;SDS011;11799;47.740;-3.390;2022-08-20T06:57:07;0.20;;;0.20;;
23260;SDS011;11799;47.740;-3.390;2022-08-20T06:59:33;0.30;;;0.30;;
23260;SDS011;11799;47.740;-3.390;2022-08-20T07:02:00;0.30;;;0.30;;
23260;SDS011;11799;47.740;-3.390;2022-08-20T07:04:27;0.30;;;0.30;;
23260;SDS011;11799;47.740;-3.390;2022-08-20T07:06:53;0.30;;;0.30;;
23260;SDS011;11799;47.740;-3.390;2022-08-20T07:09:21;0.40;;;0.40;;
23260;SDS011;11799;47.740;-3.390;2022-08-20T07:11:51;0.30;;;0.30;;
23260;SDS011;11799;47.740;-3.390;2022-08-20T07:14:17;0.28;;;0.28;;
23260;SDS011;11799;47.740;-3.390;2022-08-20T07:16:43;0.38;;;0.38;;
23260;SDS011;11799;47.740;-3.390;2022-08-20T07:19:12;0.30;;;0.30;;
23260;SDS011;11799;47.740;-3.390;2022-08-20T07:21:38;0.20;;;0.20;;
23260;SDS011;11799;47.740;-3.390;2022-08-20T07:24:04;0.30;;;0.30;;
23260;SDS011;11799;47.740;-3.390;2022-08-20T07:26:30;0.40;;;0.40;;
23260;SDS011;11799;47.740;-3.390;2022-08-20T07:28:56;0.40;;;0.40;;
23260;SDS011;11799;47.740;-3.390;2022-08-20T07:31:21;0.40;;;0.40;;
23260;SDS011;11799;47.740;-3.390;2022-08-20T07:34:05;0.30;;;0.30;;
23260;SDS011;11799;47.740;-3.390;2022-08-20T07:36:31;0.40;;;0.40;;
23260;SDS011;11799;47.740;-3.390;2022-08-20T07:38:57;0.38;;;0.38;;
23260;SDS011;11799;47.740;-3.390;2022-08-20T07:41:23;0.30;;;0.30;;
23260;SDS011;11799;47.740;-3.390;2022-08-20T07:43:49;0.30;;;0.30;;
23260;SDS011;11799;47.740;-3.390;2022-08-20T07:46:15;0.30;;;0.30;;
23260;SDS011;11799;47.740;-3.390;2022-08-20T07:48:43;0.20;;;0.20;;
23260;SDS011;11799;47.740;-3.390;2022-08-20T07:51:11;0.22;;;0.22;;
23260;SDS011;11799;47.740;-3.390;2022-08-20T07:53:38;0.30;;;0.30;;
23260;SDS011;11799;47.740;-3.390;2022-08-20T07:56:11;0.30;;;0.30;;
23260;SDS011;11799;47.740;-3.390;2022-08-20T07:58:49;0.30;;;0.30;;
23260;SDS011;11799;47.740;-3.390;2022-08-20T08:01:24;0.40;;;0.40;;
23260;SDS011;11799;47.740;-3.390;2022-08-20T08:03:52;0.40;;;0.40;;
23260;SDS011;11799;47.740;-3.390;2022-08-20T08:06:18;2.63;;;0.60;;
23260;SDS011;11799;47.740;-3.390;2022-08-20T08:08:45;0.40;;;0.40;;
23260;SDS011;11799;47.740;-3.390;2022-08-20T08:11:12;0.60;;;0.60;;
23260;SDS011;11799;47.740;-3.390;2022-08-20T08:13:39;0.30;;;0.30;;
23260;SDS011;11799;47.740;-3.390;2022-08-20T08:16:06;0.30;;;0.30;;
23260;SDS011;11799;47.740;-3.390;2022-08-20T08:18:37;0.30;;;0.30;;
23260;SDS011;11799;47.740;-3.390;2022-08-20T08:21:07;0.10;;;0.10;;
23260;SDS011;11799;47.740;-3.390;2022-08-20T08:26:04;0.10;;;0.10;;
23260;SDS011;11799;47.740;-3.390;2022-08-20T08:28:30;0.10;;;0.10;;
23260;SDS011;11799;47.740;-3.390;2022-08-20T08:30:56;0.10;;;0.10;;
23260;SDS011;11799;47.740;-3.390;2022-08-20T08:33:26;3.15;;;0.25;;
23260;SDS011;11799;47.740;-3.390;2022-08-20T08:36:04;0.00;;;0.00;;
23260;SDS011;11799;47.740;-3.390;2022-08-20T08:38:34;0.00;;;0.00;;
23260;SDS011;11799;47.740;-3.390;2022-08-20T08:43:45;0.10;;;0.10;;
23260;SDS011;11799;47.740;-3.390;2022-08-20T08:46:18;0.10;;;0.10;;
23260;SDS011;11799;47.740;-3.390;2022-08-20T08:48:48;0.00;;;0.00;;
23260;SDS011;11799;47.740;-3.390;2022-08-20T08:51:22;0.13;;;0.13;;
23260;SDS011;11799;47.740;-3.390;2022-08-20T08:53:52;0.20;;;0.20;;
23260;SDS011;11799;47.740;-3.390;2022-08-20T08:56:26;0.17;;;0.17;;
23260;SDS011;11799;47.740;-3.390;2022-08-20T08:58:57;0.10;;;0.10;;
23260;SDS011;11799;47.740;-3.390;2022-08-20T09:01:26;0.10;;;0.10;;
23260;SDS011;11799;47.740;-3.390;2022-08-20T09:03:53;0.20;;;0.20;;
23260;SDS011;11799;47.740;-3.390;2022-08-20T09:06:20;0.10;;;0.10;;
23260;SDS011;11799;47.740;-3.390;2022-08-20T09:08:49;0.10;;;0.10;;
23260;SDS011;11799;47.740;-3.390;2022-08-20T09:11:19;0.10;;;0.10;;
23260;SDS011;11799;47.740;-3.390;2022-08-20T09:13:47;0.10;;;0.10;;
23260;SDS011;11799;47.740;-3.390;2022-08-20T09:16:13;1.55;;;0.35;;
23260;SDS011;11799;47.740;-3.390;2022-08-20T09:18:39;0.45;;;0.40;;
23260;SDS011;11799;47.740;-3.390;2022-08-20T09:21:05;0.17;;;0.17;;
23260;SDS011;11799;47.740;-3.390;2022-08-20T09:23:32;0.15;;;0.15;;
23260;SDS011;11799;47.740;-3.390;2022-08-20T09:25:57;0.30;;;0.30;;
23260;SDS011;11799;47.740;-3.390;2022-08-20T09:28:23;0.28;;;0.28;;
23260;SDS011;11799;47.740;-3.390;2022-08-20T09:30:49;0.55;;;0.55;;
23260;SDS011;11799;47.740;-3.390;2022-08-20T09:33:14;4.10;;;0.25;;
23260;SDS011;11799;47.740;-3.390;2022-08-20T09:35:40;1.27;;;0.32;;
23260;SDS011;11799;47.740;-3.390;2022-08-20T09:38:06;1.77;;;0.75;;
23260;SDS011;11799;47.740;-3.390;2022-08-20T09:40:32;0.52;;;0.50;;
23260;SDS011;11799;47.740;-3.390;2022-08-20T09:42:58;0.32;;;0.32;;
23260;SDS011;11799;47.740;-3.390;2022-08-20T09:45:24;0.40;;;0.32;;
23260;SDS011;11799;47.740;-3.390;2022-08-20T09:47:50;4.30;;;0.82;;
23260;SDS011;11799;47.740;-3.390;2022-08-20T09:50:16;3.60;;;1.00;;
23260;SDS011;11799;47.740;-3.390;2022-08-20T09:52:42;0.32;;;0.32;;
23260;SDS011;11799;47.740;-3.390;2022-08-20T10:01:10;1.35;;;0.82;;
23260;SDS011;11799;47.740;-3.390;2022-08-20T10:03:39;0.73;;;0.68;;
23260;SDS011;11799;47.740;-3.390;2022-08-20T10:06:05;0.63;;;0.63;;
23260;SDS011;11799;47.740;-3.390;2022-08-20T10:08:31;0.70;;;0.32;;
23260;SDS011;11799;47.740;-3.390;2022-08-20T10:10:57;0.38;;;0.38;;
23260;SDS011;11799;47.740;-3.390;2022-08-20T10:13:22;0.35;;;0.30;;
23260;SDS011;11799;47.740;-3.390;2022-08-20T10:15:48;0.30;;;0.30;;
23260;SDS011;11799;47.740;-3.390;2022-08-20T10:18:14;0.10;;;0.10;;
23260;SDS011;11799;47.740;-3.390;2022-08-20T10:20:40;1.48;;;0.40;;
23260;SDS011;11799;47.740;-3.390;2022-08-20T10:23:06;0.52;;;0.43;;
23260;SDS011;11799;47.740;-3.390;2022-08-20T10:25:32;6.57;;;0.55;;
23260;SDS011;11799;47.740;-3.390;2022-08-20T10:27:58;4.00;;;0.60;;
23260;SDS011;11799;47.740;-3.390;2022-08-20T10:30:23;0.80;;;0.45;;
23260;SDS011;11799;47.740;-3.390;2022-08-20T10:32:49;4.22;;;0.82;;
23260;SDS011;11799;47.740;-3.390;2022-08-20T10:35:15;0.40;;;0.40;;
23260;SDS011;11799;47.740;-3.390;2022-08-20T10:37:41;1.58;;;0.60;;
23260;SDS011;11799;47.740;-3.390;2022-08-20T10:40:06;0.82;;;0.60;;
23260;SDS011;11799;47.740;-3.390;2022-08-20T10:42:33;0.43;;;0.40;;
23260;SDS011;11799;47.740;-3.390;2022-08-20T10:45:01;1.00;;;0.77;;
23260;SDS011;11799;47.740;-3.390;2022-08-20T10:47:28;4.03;;;1.17;;
23260;SDS011;11799;47.740;-3.390;2022-08-20T10:49:56;1.40;;;0.93;;
23260;SDS011;11799;47.740;-3.390;2022-08-20T10:52:23;0.45;;;0.38;;
23260;SDS011;11799;47.740;-3.390;2022-08-20T10:54:49;0.82;;;0.60;;
23260;SDS011;11799;47.740;-3.390;2022-08-20T10:57:23;3.63;;;0.70;;
23260;SDS011;11799;47.740;-3.390;2022-08-20T10:59:51;0.50;;;0.50;;
23260;SDS011;11799;47.740;-3.390;2022-08-20T11:02:18;3.83;;;1.05;;
23260;SDS011;11799;47.740;-3.390;2022-08-20T11:04:44;4.68;;;0.70;;
23260;SDS011;11799;47.740;-3.390;2022-08-20T11:07:18;6.47;;;0.80;;
23260;SDS011;11799;47.740;-3.390;2022-08-20T11:09:51;3.50;;;1.05;;
23260;SDS011;11799;47.740;-3.390;2022-08-20T11:12:18;2.65;;;0.82;;
23260;SDS011;11799;47.740;-3.390;2022-08-20T11:14:45;1.65;;;0.88;;
23260;SDS011;11799;47.740;-3.390;2022-08-20T11:17:11;10.35;;;1.40;;
23260;SDS011;11799;47.740;-3.390;2022-08-20T11:19:38;3.70;;;1.10;;
23260;SDS011;11799;47.740;-3.390;2022-08-20T11:22:06;3.97;;;0.93;;
23260;SDS011;11799;47.740;-3.390;2022-08-20T11:24:32;3.58;;;1.35;;
23260;SDS011;11799;47.740;-3.390;2022-08-20T11:26:58;2.20;;;1.05;;
23260;SDS011;11799;47.740;-3.390;2022-08-20T11:29:23;7.20;;;1.38;;
23260;SDS011;11799;47.740;-3.390;2022-08-20T11:31:49;4.32;;;1.40;;
23260;SDS011;11799;47.740;-3.390;2022-08-20T11:34:15;13.05;;;1.40;;
23260;SDS011;11799;47.740;-3.390;2022-08-20T11:36:41;2.90;;;0.93;;
23260;SDS011;11799;47.740;-3.390;2022-08-20T11:39:07;6.32;;;1.50;;
23260;SDS011;11799;47.740;-3.390;2022-08-20T11:41:33;3.78;;;1.30;;
23260;SDS011;11799;47.740;-3.390;2022-08-20T11:43:59;5.22;;;1.20;;
23260;SDS011;11799;47.740;-3.390;2022-08-20T11:46:24;4.93;;;1.40;;
23260;SDS011;11799;47.740;-3.390;2022-08-20T11:48:50;6.90;;;1.67;;
23260;SDS011;11799;47.740;-3.390;2022-08-20T11:51:15;5.32;;;1.17;;
23260;SDS011;11799;47.740;-3.390;2022-08-20T11:53:41;13.20;;;1.30;;
23260;SDS011;11799;47.740;-3.390;2022-08-20T11:56:06;4.22;;;1.70;;
23260;SDS011;11799;47.740;-3.390;2022-08-20T11:58:32;5.90;;;1.40;;
23260;SDS011;11799;47.740;-3.390;2022-08-20T12:00:58;3.33;;;1.20;;
23260;SDS011;11799;47.740;-3.390;2022-08-20T12:03:23;4.70;;;1.05;;
23260;SDS011;11799;47.740;-3.390;2022-08-20T12:05:49;4.25;;;1.27;;
23260;SDS011;11799;47.740;-3.390;2022-08-20T12:08:15;4.43;;;1.10;;
23260;SDS011;11799;47.740;-3.390;2022-08-20T12:10:41;3.45;;;1.17;;
23260;SDS011;11799;47.740;-3.390;2022-08-20T12:13:06;5.20;;;1.50;;
23260;SDS011;11799;47.740;-3.390;2022-08-20T12:15:35;8.43;;;1.30;;
23260;SDS011;11799;47.740;-3.390;2022-08-20T12:18:08;12.05;;;1.65;;
23260;SDS011;11799;47.740;-3.390;2022-08-20T12:20:34;4.07;;;1.17;;
23260;SDS011;11799;47.740;-3.390;2022-08-20T12:23:01;5.55;;;1.40;;
23260;SDS011;11799;47.740;-3.390;2022-08-20T12:25:28;7.50;;;2.33;;
23260;SDS011;11799;47.740;-3.390;2022-08-20T12:27:54;5.57;;;1.75;;
23260;SDS011;11799;47.740;-3.390;2022-08-20T12:30:20;5.43;;;1.45;;
23260;SDS011;11799;47.740;-3.390;2022-08-20T12:32:47;10.50;;;1.70;;
23260;SDS011;11799;47.740;-3.390;2022-08-20T12:35:14;5.15;;;1.38;;
23260;SDS011;11799;47.740;-3.390;2022-08-20T12:37:41;4.75;;;1.17;;
23260;SDS011;11799;47.740;-3.390;2022-08-20T12:40:09;5.85;;;1.58;;
23260;SDS011;11799;47.740;-3.390;2022-08-20T12:42:37;7.97;;;1.30;;
23260;SDS011;11799;47.740;-3.390;2022-08-20T12:45:03;4.53;;;0.90;;
23260;SDS011;11799;47.740;-3.390;2022-08-20T12:47:34;4.18;;;1.33;;
23260;SDS011;11799;47.740;-3.390;2022-08-20T12:50:04;6.78;;;1.20;;
23260;SDS011;11799;47.740;-3.390;2022-08-20T12:52:37;13.57;;;1.50;;
23260;SDS011;11799;47.740;-3.390;2022-08-20T12:55:03;5.70;;;1.10;;
23260;SDS011;11799;47.740;-3.390;2022-08-20T12:57:32;5.68;;;0.93;;
23260;SDS011;11799;47.740;-3.390;2022-08-20T13:00:17;5.95;;;0.90;;
23260;SDS011;11799;47.740;-3.390;2022-08-20T13:02:46;6.35;;;1.02;;
23260;SDS011;11799;47.740;-3.390;2022-08-20T13:05:16;4.85;;;1.30;;
23260;SDS011;11799;47.740;-3.390;2022-08-20T13:07:42;6.72;;;1.05;;
23260;SDS011;11799;47.740;-3.390;2022-08-20T13:10:09;6.88;;;1.45;;
23260;SDS011;11799;47.740;-3.390;2022-08-20T13:12:37;3.13;;;1.25;;
23260;SDS011;11799;47.740;-3.390;2022-08-20T13:15:02;6.43;;;1.33;;
23260;SDS011;11799;47.740;-3.390;2022-08-20T13:17:29;9.02;;;1.35;;
23260;SDS011;11799;47.740;-3.390;2022-08-20T13:19:54;3.58;;;1.00;;
23260;SDS011;11799;47.740;-3.390;2022-08-20T13:22:20;7.05;;;1.60;;
23260;SDS011;11799;47.740;-3.390;2022-08-20T13:24:45;12.85;;;1.27;;
23260;SDS011;11799;47.740;-3.390;2022-08-20T13:27:12;10.63;;;1.65;;
23260;SDS011;11799;47.740;-3.390;2022-08-20T13:29:53;5.68;;;1.30;;
23260;SDS011;11799;47.740;-3.390;2022-08-20T13:32:21;4.43;;;1.00;;
23260;SDS011;11799;47.740;-3.390;2022-08-20T13:34:47;2.08;;;1.13;;
23260;SDS011;11799;47.740;-3.390;2022-08-20T13:37:14;5.05;;;1.15;;
23260;SDS011;11799;47.740;-3.390;2022-08-20T13:39:47;6.50;;;1.20;;
23260;SDS011;11799;47.740;-3.390;2022-08-20T13:42:13;5.45;;;1.20;;
23260;SDS011;11799;47.740;-3.390;2022-08-20T13:44:40;7.22;;;1.30;;
23260;SDS011;11799;47.740;-3.390;2022-08-20T13:47:21;6.45;;;1.30;;
23260;SDS011;11799;47.740;-3.390;2022-08-20T13:49:56;1.95;;;0.85;;
23260;SDS011;11799;47.740;-3.390;2022-08-20T13:52:25;6.28;;;1.17;;
23260;SDS011;11799;47.740;-3.390;2022-08-20T13:54:51;5.10;;;1.65;;
23260;SDS011;11799;47.740;-3.390;2022-08-20T13:57:17;10.80;;;1.70;;
23260;SDS011;11799;47.740;-3.390;2022-08-20T13:59:45;8.05;;;1.42;;
23260;SDS011;11799;47.740;-3.390;2022-08-20T14:02:13;12.18;;;1.42;;
23260;SDS011;11799;47.740;-3.390;2022-08-20T14:04:40;2.75;;;1.00;;
23260;SDS011;11799;47.740;-3.390;2022-08-20T14:09:48;6.80;;;1.67;;
23260;SDS011;11799;47.740;-3.390;2022-08-20T14:12:15;6.00;;;1.42;;
23260;SDS011;11799;47.740;-3.390;2022-08-20T14:14:41;5.47;;;1.60;;
23260;SDS011;11799;47.740;-3.390;2022-08-20T14:17:26;14.20;;;1.98;;
23260;SDS011;11799;47.740;-3.390;2022-08-20T14:19:55;13.07;;;1.75;;
23260;SDS011;11799;47.740;-3.390;2022-08-20T14:22:22;12.50;;;1.88;;
23260;SDS011;11799;47.740;-3.390;2022-08-20T14:24:48;7.72;;;1.67;;
23260;SDS011;11799;47.740;-3.390;2022-08-20T14:27:15;6.45;;;1.42;;
23260;SDS011;11799;47.740;-3.390;2022-08-20T14:29:43;6.57;;;1.70;;
23260;SDS011;11799;47.740;-3.390;2022-08-20T14:32:10;9.50;;;1.83;;
23260;SDS011;11799;47.740;-3.390;2022-08-20T14:34:36;5.53;;;1.50;;
23260;SDS011;11799;47.740;-3.390;2022-08-20T14:39:37;9.77;;;1.90;;
23260;SDS011;11799;47.740;-3.390;2022-08-20T14:42:03;9.02;;;1.60;;
23260;SDS011;11799;47.740;-3.390;2022-08-20T14:44:29;5.78;;;1.80;;
23260;SDS011;11799;47.740;-3.390;2022-08-20T14:46:54;7.57;;;1.67;;
23260;SDS011;11799;47.740;-3.390;2022-08-20T14:49:20;14.90;;;2.13;;
23260;SDS011;11799;47.740;-3.390;2022-08-20T14:51:46;5.43;;;1.40;;
23260;SDS011;11799;47.740;-3.390;2022-08-20T14:54:12;3.97;;;1.83;;
23260;SDS011;11799;47.740;-3.390;2022-08-20T14:56:37;16.70;;;1.88;;
23260;SDS011;11799;47.740;-3.390;2022-08-20T14:59:03;9.50;;;2.03;;
23260;SDS011;11799;47.740;-3.390;2022-08-20T15:01:28;9.73;;;2.22;;
23260;SDS011;11799;47.740;-3.390;2022-08-20T15:03:54;5.38;;;2.03;;
23260;SDS011;11799;47.740;-3.390;2022-08-20T15:06:20;6.05;;;1.60;;
23260;SDS011;11799;47.740;-3.390;2022-08-20T15:08:45;9.38;;;1.77;;
23260;SDS011;11799;47.740;-3.390;2022-08-20T15:11:11;6.20;;;1.40;;